sensor_id;sensor_type;location;lat;lon;timestamp;pressure;altitude;pressure_sealevel;temperature;humidity
26978;BME280;56314;48.088;11.642;2023-11-21T00:00:48;94925.50;;;6.95;85.44
26978;BME280;56314;48.088;11.642;2023-11-21T00:03:14;94922.88;;;6.95;85.50
26978;BME280;56314;48.088;11.642;2023-11-21T00:05:43;94919.53;;;6.93;86.43
26978;BME280;56314;48.088;11.642;2023-11-21T00:08:08;94921.31;;;6.92;87.78
26978;BME280;56314;48.088;11.642;2023-11-21T00:10:34;94915.97;;;6.94;89.66
26978;BME280;56314;48.088;11.642;2023-11-21T00:13:00;94906.47;;;6.93;90.71
26978;BME280;56314;48.088;11.642;2023-11-21T00:15:27;94911.22;;;6.88;90.99
26978;BME280;56314;48.088;11.642;2023-11-21T00:17:52;94913.28;;;6.83;91.54
26978;BME280;56314;48.088;11.642;2023-11-21T00:20:17;94914.22;;;6.82;91.85
26978;BME280;56314;48.088;11.642;2023-11-21T00:22:43;94907.66;;;6.76;92.83
26978;BME280;56314;48.088;11.642;2023-11-21T00:25:08;94906.22;;;6.72;93.05
26978;BME280;56314;48.088;11.642;2023-11-21T00:27:35;94893.81;;;6.75;93.53
26978;BME280;56314;48.088;11.642;2023-11-21T00:30:01;94899.44;;;6.69;94.15
26978;BME280;56314;48.088;11.642;2023-11-21T00:32:26;94884.94;;;6.65;94.57
26978;BME280;56314;48.088;11.642;2023-11-21T00:34:51;94887.78;;;6.62;94.38
26978;BME280;56314;48.088;11.642;2023-11-21T00:37:17;94880.25;;;6.57;95.33
26978;BME280;56314;48.088;11.642;2023-11-21T00:39:42;94881.41;;;6.53;95.03
26978;BME280;56314;48.088;11.642;2023-11-21T00:42:08;94872.75;;;6.53;95.98
26978;BME280;56314;48.088;11.642;2023-11-21T00:44:38;94877.13;;;6.52;95.83
26978;BME280;56314;48.088;11.642;2023-11-21T00:47:03;94872.84;;;6.51;95.98
26978;BME280;56314;48.088;11.642;2023-11-21T00:49:29;94872.03;;;6.51;96.98
26978;BME280;56314;48.088;11.642;2023-11-21T00:51:54;94869.63;;;6.47;97.21
26978;BME280;56314;48.088;11.642;2023-11-21T00:54:20;94865.59;;;6.43;97.75
26978;BME280;56314;48.088;11.642;2023-11-21T00:56:45;94870.88;;;6.42;97.92
26978;BME280;56314;48.088;11.642;2023-11-21T00:59:12;94871.81;;;6.41;97.37
26978;BME280;56314;48.088;11.642;2023-11-21T01:01:38;94876.09;;;6.42;98.16
26978;BME280;56314;48.088;11.642;2023-11-21T01:04:03;94876.53;;;6.36;96.76
26978;BME280;56314;48.088;11.642;2023-11-21T01:06:28;94874.03;;;6.34;96.49
26978;BME280;56314;48.088;11.642;2023-11-21T01:08:55;94876.84;;;6.44;94.78
26978;BME280;56314;48.088;11.642;2023-11-21T01:11:20;94876.53;;;6.36;94.46
26978;BME280;56314;48.088;11.642;2023-11-21T01:13:46;94873.69;;;6.39;94.92
26978;BME280;56314;48.088;11.642;2023-11-21T01:16:11;94878.50;;;6.32;94.17
26978;BME280;56314;48.088;11.642;2023-11-21T01:18:36;94871.00;;;6.27;94.92
26978;BME280;56314;48.088;11.642;2023-11-21T01:21:02;94868.19;;;6.30;94.79
26978;BME280;56314;48.088;11.642;2023-11-21T01:23:27;94870.19;;;6.27;94.14
26978;BME280;56314;48.088;11.642;2023-11-21T01:25:55;94862.88;;;6.19;94.90
26978;BME280;56314;48.088;11.642;2023-11-21T01:28:20;94858.72;;;6.16;95.21
26978;BME280;56314;48.088;11.642;2023-11-21T01:30:46;94860.69;;;6.13;95.11
26978;BME280;56314;48.088;11.642;2023-11-21T01:33:11;94860.16;;;6.21;94.42
26978;BME280;56314;48.088;11.642;2023-11-21T01:35:37;94863.38;;;6.11;94.35
26978;BME280;56314;48.088;11.642;2023-11-21T01:38:02;94864.56;;;6.07;94.97
26978;BME280;56314;48.088;11.642;2023-11-21T01:40:29;94870.78;;;6.05;95.54
26978;BME280;56314;48.088;11.642;2023-11-21T01:42:55;94874.44;;;6.02;95.52
26978;BME280;56314;48.088;11.642;2023-11-21T01:45:21;94873.88;;;5.97;95.62
26978;BME280;56314;48.088;11.642;2023-11-21T01:47:46;94870.34;;;5.98;96.34
26978;BME280;56314;48.088;11.642;2023-11-21T01:50:16;94867.56;;;6.01;96.20
26978;BME280;56314;48.088;11.642;2023-11-21T01:52:44;94862.97;;;6.05;95.88
26978;BME280;56314;48.088;11.642;2023-11-21T01:55:10;94871.00;;;6.01;96.06
26978;BME280;56314;48.088;11.642;2023-11-21T01:57:36;94876.13;;;6.03;96.36
26978;BME280;56314;48.088;11.642;2023-11-21T02:00:03;94876.75;;;6.07;96.05
26978;BME280;56314;48.088;11.642;2023-11-21T02:02:44;94873.50;;;6.03;95.21
26978;BME280;56314;48.088;11.642;2023-11-21T02:05:16;94873.59;;;6.01;94.99
26978;BME280;56314;48.088;11.642;2023-11-21T02:07:47;94868.19;;;6.05;94.72
26978;BME280;56314;48.088;11.642;2023-11-21T02:10:14;94863.50;;;6.10;94.13
26978;BME280;56314;48.088;11.642;2023-11-21T02:12:43;94873.59;;;6.01;94.36
26978;BME280;56314;48.088;11.642;2023-11-21T02:15:13;94872.66;;;6.03;93.43
26978;BME280;56314;48.088;11.642;2023-11-21T02:17:48;94871.19;;;5.98;93.40
26978;BME280;56314;48.088;11.642;2023-11-21T02:20:21;94871.19;;;5.98;93.83
26978;BME280;56314;48.088;11.642;2023-11-21T02:22:53;94867.69;;;5.99;94.14
26978;BME280;56314;48.088;11.642;2023-11-21T02:25:26;94872.00;;;5.99;94.43
26978;BME280;56314;48.088;11.642;2023-11-21T02:27:56;94875.38;;;6.01;95.05
26978;BME280;56314;48.088;11.642;2023-11-21T02:30:23;94880.28;;;6.06;96.18
26978;BME280;56314;48.088;11.642;2023-11-21T02:32:50;94878.63;;;6.05;96.37
26978;BME280;56314;48.088;11.642;2023-11-21T02:35:18;94871.00;;;6.01;97.00
26978;BME280;56314;48.088;11.642;2023-11-21T02:37:43;94876.94;;;6.04;97.19
26978;BME280;56314;48.088;11.642;2023-11-21T02:40:09;94874.34;;;6.04;98.00
26978;BME280;56314;48.088;11.642;2023-11-21T02:42:35;94880.19;;;6.07;98.92
26978;BME280;56314;48.088;11.642;2023-11-21T02:45:00;94881.22;;;6.05;98.91
26978;BME280;56314;48.088;11.642;2023-11-21T02:47:26;94880.41;;;6.04;99.74
26978;BME280;56314;48.088;11.642;2023-11-21T02:49:51;94883.81;;;6.05;100.00
26978;BME280;56314;48.088;11.642;2023-11-21T02:52:18;94878.22;;;6.11;100.00
26978;BME280;56314;48.088;11.642;2023-11-21T02:54:44;94875.91;;;6.06;100.00
26978;BME280;56314;48.088;11.642;2023-11-21T02:57:10;94880.09;;;6.09;100.00
26978;BME280;56314;48.088;11.642;2023-11-21T02:59:35;94878.53;;;6.06;100.00
26978;BME280;56314;48.088;11.642;2023-11-21T03:02:00;94866.44;;;6.05;100.00
26978;BME280;56314;48.088;11.642;2023-11-21T03:04:26;94869.78;;;6.07;100.00
26978;BME280;56314;48.088;11.642;2023-11-21T03:06:51;94856.81;;;6.06;100.00
26978;BME280;56314;48.088;11.642;2023-11-21T03:09:17;94853.59;;;6.02;100.00
26978;BME280;56314;48.088;11.642;2023-11-21T03:11:42;94859.75;;;6.01;100.00
26978;BME280;56314;48.088;11.642;2023-11-21T03:14:07;94856.50;;;5.97;100.00
26978;BME280;56314;48.088;11.642;2023-11-21T03:16:33;94855.75;;;5.95;100.00
26978;BME280;56314;48.088;11.642;2023-11-21T03:18:58;94847.66;;;6.00;100.00
26978;BME280;56314;48.088;11.642;2023-11-21T03:21:24;94855.56;;;5.98;100.00
26978;BME280;56314;48.088;11.642;2023-11-21T03:23:50;94852.22;;;5.96;100.00
26978;BME280;56314;48.088;11.642;2023-11-21T03:26:15;94853.88;;;5.97;100.00
26978;BME280;56314;48.088;11.642;2023-11-21T03:28:41;94850.53;;;5.95;100.00
26978;BME280;56314;48.088;11.642;2023-11-21T03:31:07;94839.00;;;5.99;100.00
26978;BME280;56314;48.088;11.642;2023-11-21T03:33:34;94845.94;;;5.99;100.00
26978;BME280;56314;48.088;11.642;2023-11-21T03:36:00;94843.28;;;6.00;100.00
26978;BME280;56314;48.088;11.642;2023-11-21T03:38:26;94847.72;;;5.98;100.00
26978;BME280;56314;48.088;11.642;2023-11-21T03:40:51;94844.22;;;5.99;100.00
26978;BME280;56314;48.088;11.642;2023-11-21T03:43:16;94836.47;;;5.98;100.00
26978;BME280;56314;48.088;11.642;2023-11-21T03:45:42;94842.22;;;6.03;100.00
26978;BME280;56314;48.088;11.642;2023-11-21T03:48:08;94843.91;;;6.04;100.00
26978;BME280;56314;48.088;11.642;2023-11-21T03:50:34;94847.25;;;6.06;100.00
26978;BME280;56314;48.088;11.642;2023-11-21T03:52:59;94850.78;;;6.05;100.00
26978;BME280;56314;48.088;11.642;2023-11-21T03:55:25;94849.94;;;6.05;100.00
26978;BME280;56314;48.088;11.642;2023-11-21T03:57:51;94851.72;;;6.04;100.00
26978;BME280;56314;48.088;11.642;2023-11-21T04:00:17;94846.94;;;6.11;100.00
26978;BME280;56314;48.088;11.642;2023-11-21T04:02:43;94849.84;;;6.06;100.00
26978;BME280;56314;48.088;11.642;2023-11-21T04:05:08;94850.78;;;6.05;100.00
26978;BME280;56314;48.088;11.642;2023-11-21T04:07:34;94849.00;;;6.06;100.00
26978;BME280;56314;48.088;11.642;2023-11-21T04:10:00;94846.31;;;6.07;100.00
26978;BME280;56314;48.088;11.642;2023-11-21T04:12:26;94849.13;;;6.04;100.00
26978;BME280;56314;48.088;11.642;2023-11-21T04:14:51;94851.81;;;6.03;100.00
26978;BME280;56314;48.088;11.642;2023-11-21T04:17:20;94846.59;;;6.03;100.00
26978;BME280;56314;48.088;11.642;2023-11-21T04:19:46;94839.63;;;6.03;100.00
26978;BME280;56314;48.088;11.642;2023-11-21T04:22:11;94848.28;;;6.04;100.00
26978;BME280;56314;48.088;11.642;2023-11-21T04:24:37;94840.56;;;6.02;100.00
26978;BME280;56314;48.088;11.642;2023-11-21T04:27:02;94844.94;;;6.01;100.00
26978;BME280;56314;48.088;11.642;2023-11-21T04:29:28;94852.53;;;6.05;100.00
26978;BME280;56314;48.088;11.642;2023-11-21T04:31:53;94860.47;;;6.03;100.00
26978;BME280;56314;48.088;11.642;2023-11-21T04:34:19;94859.53;;;6.04;100.00
26978;BME280;56314;48.088;11.642;2023-11-21T04:36:44;94861.22;;;6.05;100.00
26978;BME280;56314;48.088;11.642;2023-11-21T04:39:10;94859.44;;;6.06;100.00
26978;BME280;56314;48.088;11.642;2023-11-21T04:41:36;94866.13;;;6.10;100.00
26978;BME280;56314;48.088;11.642;2023-11-21T04:44:05;94865.06;;;6.12;100.00
26978;BME280;56314;48.088;11.642;2023-11-21T04:46:30;94864.44;;;6.09;100.00
26978;BME280;56314;48.088;11.642;2023-11-21T04:48:57;94860.16;;;6.08;100.00
26978;BME280;56314;48.088;11.642;2023-11-21T04:51:22;94856.75;;;6.07;100.00
26978;BME280;56314;48.088;11.642;2023-11-21T04:53:47;94860.91;;;6.10;100.00
26978;BME280;56314;48.088;11.642;2023-11-21T04:56:13;94855.06;;;6.06;100.00
26978;BME280;56314;48.088;11.642;2023-11-21T04:58:39;94854.34;;;6.04;100.00
26978;BME280;56314;48.088;11.642;2023-11-21T05:01:06;94861.31;;;6.04;100.00
26978;BME280;56314;48.088;11.642;2023-11-21T05:03:32;94859.88;;;5.99;100.00
26978;BME280;56314;48.088;11.642;2023-11-21T05:05:57;94855.34;;;6.01;100.00
26978;BME280;56314;48.088;11.642;2023-11-21T05:08:23;94858.81;;;6.02;100.00
26978;BME280;56314;48.088;11.642;2023-11-21T05:10:48;94857.97;;;6.01;100.00
26978;BME280;56314;48.088;11.642;2023-11-21T05:13:14;94860.47;;;6.16;100.00
26978;BME280;56314;48.088;11.642;2023-11-21T05:15:43;94850.78;;;6.05;100.00
26978;BME280;56314;48.088;11.642;2023-11-21T05:18:09;94849.44;;;5.99;100.00
26978;BME280;56314;48.088;11.642;2023-11-21T05:20:35;94859.88;;;5.99;100.00
26978;BME280;56314;48.088;11.642;2023-11-21T05:23:01;94856.56;;;5.96;100.00
26978;BME280;56314;48.088;11.642;2023-11-21T05:25:26;94863.78;;;5.92;100.00
26978;BME280;56314;48.088;11.642;2023-11-21T05:27:51;94874.56;;;6.00;100.00
26978;BME280;56314;48.088;11.642;2023-11-21T05:30:18;94873.19;;;5.95;100.00
26978;BME280;56314;48.088;11.642;2023-11-21T05:32:43;94873.06;;;5.96;100.00
26978;BME280;56314;48.088;11.642;2023-11-21T05:35:09;94876.47;;;5.97;100.00
26978;BME280;56314;48.088;11.642;2023-11-21T05:37:39;94883.78;;;5.92;100.00
26978;BME280;56314;48.088;11.642;2023-11-21T05:40:06;94872.53;;;5.91;100.00
26978;BME280;56314;48.088;11.642;2023-11-21T05:42:35;94875.13;;;5.91;100.00
26978;BME280;56314;48.088;11.642;2023-11-21T05:45:00;94875.13;;;5.91;100.00
26978;BME280;56314;48.088;11.642;2023-11-21T05:47:38;94878.78;;;5.89;100.00
26978;BME280;56314;48.088;11.642;2023-11-21T05:50:06;94873.56;;;5.89;100.00
26978;BME280;56314;48.088;11.642;2023-11-21T05:52:34;94876.06;;;5.90;100.00
26978;BME280;56314;48.088;11.642;2023-11-21T05:55:00;94876.91;;;5.91;100.00
26978;BME280;56314;48.088;11.642;2023-11-21T05:57:25;94881.38;;;5.89;100.00
26978;BME280;56314;48.088;11.642;2023-11-21T05:59:50;94877.03;;;5.89;100.00
26978;BME280;56314;48.088;11.642;2023-11-21T06:02:16;94884.63;;;5.92;100.00
26978;BME280;56314;48.088;11.642;2023-11-21T06:04:42;94892.44;;;5.92;100.00
26978;BME280;56314;48.088;11.642;2023-11-21T06:07:07;94881.81;;;5.95;100.00
26978;BME280;56314;48.088;11.642;2023-11-21T06:09:32;94892.13;;;5.97;100.00
26978;BME280;56314;48.088;11.642;2023-11-21T06:11:58;94891.41;;;5.95;100.00
26978;BME280;56314;48.088;11.642;2023-11-21T06:14:23;94894.03;;;5.95;100.00
26978;BME280;56314;48.088;11.642;2023-11-21T06:16:49;94898.38;;;5.94;100.00
26978;BME280;56314;48.088;11.642;2023-11-21T06:19:16;94894.97;;;5.94;100.00
26978;BME280;56314;48.088;11.642;2023-11-21T06:21:45;94901.84;;;5.95;100.00
26978;BME280;56314;48.088;11.642;2023-11-21T06:24:11;94903.47;;;5.96;100.00
26978;BME280;56314;48.088;11.642;2023-11-21T06:26:36;94903.47;;;5.96;100.00
26978;BME280;56314;48.088;11.642;2023-11-21T06:29:01;94907.06;;;5.95;100.00
26978;BME280;56314;48.088;11.642;2023-11-21T06:31:29;94911.88;;;6.01;100.00
26978;BME280;56314;48.088;11.642;2023-11-21T06:33:54;94904.16;;;5.99;100.00
26978;BME280;56314;48.088;11.642;2023-11-21T06:36:20;94907.75;;;5.97;100.00
26978;BME280;56314;48.088;11.642;2023-11-21T06:38:45;94913.81;;;5.97;100.00
26978;BME280;56314;48.088;11.642;2023-11-21T06:41:11;94920.63;;;6.00;100.00
26978;BME280;56314;48.088;11.642;2023-11-21T06:43:39;94917.25;;;5.98;100.00
26978;BME280;56314;48.088;11.642;2023-11-21T06:46:04;94916.44;;;5.97;100.00
26978;BME280;56314;48.088;11.642;2023-11-21T06:48:30;94923.78;;;6.05;100.00
26978;BME280;56314;48.088;11.642;2023-11-21T06:50:56;94926.56;;;6.02;100.00
26978;BME280;56314;48.088;11.642;2023-11-21T06:53:21;94931.69;;;6.04;100.00
26978;BME280;56314;48.088;11.642;2023-11-21T06:55:47;94933.16;;;6.08;100.00
26978;BME280;56314;48.088;11.642;2023-11-21T06:58:12;94934.94;;;6.07;100.00
26978;BME280;56314;48.088;11.642;2023-11-21T07:00:39;94937.44;;;6.09;100.00
26978;BME280;56314;48.088;11.642;2023-11-21T07:03:05;94930.34;;;6.11;100.00
26978;BME280;56314;48.088;11.642;2023-11-21T07:05:30;94936.31;;;6.13;100.00
26978;BME280;56314;48.088;11.642;2023-11-21T07:07:55;94937.94;;;6.14;100.00
26978;BME280;56314;48.088;11.642;2023-11-21T07:10:21;94939.72;;;6.13;100.00
26978;BME280;56314;48.088;11.642;2023-11-21T07:12:46;94941.19;;;6.18;100.00
26978;BME280;56314;48.088;11.642;2023-11-21T07:15:12;94938.69;;;6.16;100.00
26978;BME280;56314;48.088;11.642;2023-11-21T07:17:38;94949.84;;;6.18;100.00
26978;BME280;56314;48.088;11.642;2023-11-21T07:20:04;94943.69;;;6.19;100.00
26978;BME280;56314;48.088;11.642;2023-11-21T07:22:29;94948.78;;;6.21;100.00
26978;BME280;56314;48.088;11.642;2023-11-21T07:24:55;94953.31;;;6.19;100.00
26978;BME280;56314;48.088;11.642;2023-11-21T07:27:22;94947.34;;;6.16;100.00
26978;BME280;56314;48.088;11.642;2023-11-21T07:29:47;94957.66;;;6.18;100.00
26978;BME280;56314;48.088;11.642;2023-11-21T07:32:13;94964.56;;;6.19;100.00
26978;BME280;56314;48.088;11.642;2023-11-21T07:34:40;94960.16;;;6.20;100.00
26978;BME280;56314;48.088;11.642;2023-11-21T07:37:06;94959.34;;;6.19;100.00
26978;BME280;56314;48.088;11.642;2023-11-21T07:39:31;94959.34;;;6.19;100.00
26978;BME280;56314;48.088;11.642;2023-11-21T07:41:57;94966.13;;;6.22;100.00
26978;BME280;56314;48.088;11.642;2023-11-21T07:44:23;94968.53;;;6.25;100.00
26978;BME280;56314;48.088;11.642;2023-11-21T07:46:48;94966.66;;;6.27;100.00
26978;BME280;56314;48.088;11.642;2023-11-21T07:49:15;94964.03;;;6.27;100.00
26978;BME280;56314;48.088;11.642;2023-11-21T07:51:43;94970.72;;;6.31;100.00
26978;BME280;56314;48.088;11.642;2023-11-21T07:54:09;94969.56;;;6.35;100.00
26978;BME280;56314;48.088;11.642;2023-11-21T07:56:35;94969.38;;;6.38;100.00
26978;BME280;56314;48.088;11.642;2023-11-21T07:59:00;94964.25;;;6.50;99.97
26978;BME280;56314;48.088;11.642;2023-11-21T08:01:25;94961.34;;;6.54;99.13
26978;BME280;56314;48.088;11.642;2023-11-21T08:03:53;94961.03;;;6.59;99.24
26978;BME280;56314;48.088;11.642;2023-11-21T08:06:21;94959.69;;;6.66;98.76
26978;BME280;56314;48.088;11.642;2023-11-21T08:08:46;94959.84;;;6.76;98.93
26978;BME280;56314;48.088;11.642;2023-11-21T08:11:12;94968.22;;;6.81;98.80
26978;BME280;56314;48.088;11.642;2023-11-21T08:13:37;94963.41;;;6.88;98.06
26978;BME280;56314;48.088;11.642;2023-11-21T08:16:04;94960.81;;;6.88;97.02
26978;BME280;56314;48.088;11.642;2023-11-21T08:18:30;94957.88;;;6.92;96.97
26978;BME280;56314;48.088;11.642;2023-11-21T08:20:56;94958.28;;;6.99;96.77
26978;BME280;56314;48.088;11.642;2023-11-21T08:23:22;94957.00;;;7.05;94.78
26978;BME280;56314;48.088;11.642;2023-11-21T08:25:51;94962.84;;;7.08;94.60
26978;BME280;56314;48.088;11.642;2023-11-21T08:28:17;94961.69;;;7.13;94.04
26978;BME280;56314;48.088;11.642;2023-11-21T08:30:42;94958.75;;;7.17;93.85
26978;BME280;56314;48.088;11.642;2023-11-21T08:33:08;94956.75;;;7.21;93.52
26978;BME280;56314;48.088;11.642;2023-11-21T08:35:34;94958.22;;;7.25;92.96
26978;BME280;56314;48.088;11.642;2023-11-21T08:38:00;94960.78;;;7.38;91.34
26978;BME280;56314;48.088;11.642;2023-11-21T08:40:25;94961.84;;;7.35;91.97
26978;BME280;56314;48.088;11.642;2023-11-21T08:42:51;94958.72;;;7.30;92.59
26978;BME280;56314;48.088;11.642;2023-11-21T08:45:18;94955.16;;;7.31;92.82
26978;BME280;56314;48.088;11.642;2023-11-21T08:47:44;94955.06;;;7.33;91.86
26978;BME280;56314;48.088;11.642;2023-11-21T08:50:10;94951.47;;;7.34;90.91
26978;BME280;56314;48.088;11.642;2023-11-21T08:52:37;94955.94;;;7.45;89.90
26978;BME280;56314;48.088;11.642;2023-11-21T08:55:04;94958.56;;;7.45;89.83
26978;BME280;56314;48.088;11.642;2023-11-21T08:57:34;94957.16;;;7.52;89.13
26978;BME280;56314;48.088;11.642;2023-11-21T09:00:00;94957.13;;;7.65;88.02
26978;BME280;56314;48.088;11.642;2023-11-21T09:02:26;94954.56;;;7.76;87.64
26978;BME280;56314;48.088;11.642;2023-11-21T09:04:52;94959.31;;;7.82;87.19
26978;BME280;56314;48.088;11.642;2023-11-21T09:07:18;94965.44;;;7.94;87.01
26978;BME280;56314;48.088;11.642;2023-11-21T09:09:48;94961.81;;;8.08;85.89
26978;BME280;56314;48.088;11.642;2023-11-21T09:12:14;94966.06;;;8.34;84.40
26978;BME280;56314;48.088;11.642;2023-11-21T09:14:40;94975.28;;;8.51;83.65
26978;BME280;56314;48.088;11.642;2023-11-21T09:17:06;94971.03;;;8.72;83.09
26978;BME280;56314;48.088;11.642;2023-11-21T09:19:37;94981.75;;;8.92;82.57
26978;BME280;56314;48.088;11.642;2023-11-21T09:22:02;94981.50;;;9.06;80.92
26978;BME280;56314;48.088;11.642;2023-11-21T09:24:28;94982.22;;;9.08;79.87
26978;BME280;56314;48.088;11.642;2023-11-21T09:26:53;94989.13;;;9.09;80.61
26978;BME280;56314;48.088;11.642;2023-11-21T09:29:19;94998.53;;;9.01;78.85
26978;BME280;56314;48.088;11.642;2023-11-21T09:31:44;94991.84;;;8.97;79.28
26978;BME280;56314;48.088;11.642;2023-11-21T09:34:10;94998.41;;;8.91;80.17
26978;BME280;56314;48.088;11.642;2023-11-21T09:36:36;95001.38;;;8.86;82.01
26978;BME280;56314;48.088;11.642;2023-11-21T09:39:04;94995.09;;;8.89;80.78
26978;BME280;56314;48.088;11.642;2023-11-21T09:41:49;94997.56;;;8.79;78.98
26978;BME280;56314;48.088;11.642;2023-11-21T09:44:18;94997.44;;;8.69;78.99
26978;BME280;56314;48.088;11.642;2023-11-21T09:46:48;94989.94;;;8.76;78.98
26978;BME280;56314;48.088;11.642;2023-11-21T09:49:15;94996.13;;;8.75;79.71
26978;BME280;56314;48.088;11.642;2023-11-21T09:51:44;94991.63;;;8.88;80.67
26978;BME280;56314;48.088;11.642;2023-11-21T09:54:11;94993.19;;;9.14;80.21
26978;BME280;56314;48.088;11.642;2023-11-21T09:56:38;94986.00;;;9.50;78.15
26978;BME280;56314;48.088;11.642;2023-11-21T09:59:04;94997.88;;;9.65;77.19
26978;BME280;56314;48.088;11.642;2023-11-21T10:01:33;94991.88;;;9.75;76.86
26978;BME280;56314;48.088;11.642;2023-11-21T10:04:00;94985.16;;;9.93;74.87
26978;BME280;56314;48.088;11.642;2023-11-21T10:06:26;94980.44;;;10.08;74.16
26978;BME280;56314;48.088;11.642;2023-11-21T10:08:53;94975.44;;;10.05;74.04
26978;BME280;56314;48.088;11.642;2023-11-21T10:11:19;94979.88;;;10.05;73.50
26978;BME280;56314;48.088;11.642;2023-11-21T10:13:47;94989.22;;;9.97;73.51
26978;BME280;56314;48.088;11.642;2023-11-21T10:16:16;94981.41;;;10.07;73.69
26978;BME280;56314;48.088;11.642;2023-11-21T10:18:47;94973.88;;;10.46;72.41
26978;BME280;56314;48.088;11.642;2023-11-21T10:21:13;94970.63;;;11.16;71.93
26978;BME280;56314;48.088;11.642;2023-11-21T10:23:39;94970.16;;;11.42;69.02
26978;BME280;56314;48.088;11.642;2023-11-21T10:26:06;94975.84;;;11.47;67.45
26978;BME280;56314;48.088;11.642;2023-11-21T10:28:36;94966.28;;;11.36;68.70
26978;BME280;56314;48.088;11.642;2023-11-21T10:31:06;94970.25;;;11.31;67.59
26978;BME280;56314;48.088;11.642;2023-11-21T10:33:32;94968.91;;;11.05;69.27
26978;BME280;56314;48.088;11.642;2023-11-21T10:35:58;94966.47;;;10.83;69.93
26978;BME280;56314;48.088;11.642;2023-11-21T10:38:24;94971.47;;;10.65;70.14
26978;BME280;56314;48.088;11.642;2023-11-21T10:40:52;94980.06;;;10.45;70.16
26978;BME280;56314;48.088;11.642;2023-11-21T10:43:18;94980.91;;;10.13;71.40
26978;BME280;56314;48.088;11.642;2023-11-21T10:45:44;94984.00;;;9.86;72.22
26978;BME280;56314;48.088;11.642;2023-11-21T10:48:10;94994.25;;;9.78;73.82
26978;BME280;56314;48.088;11.642;2023-11-21T10:50:37;94986.19;;;9.69;75.05
26978;BME280;56314;48.088;11.642;2023-11-21T10:53:04;94977.75;;;9.66;74.74
26978;BME280;56314;48.088;11.642;2023-11-21T10:55:30;94989.94;;;9.55;75.94
26978;BME280;56314;48.088;11.642;2023-11-21T10:57:59;94979.56;;;9.43;75.69
26978;BME280;56314;48.088;11.642;2023-11-21T11:00:26;94982.78;;;9.46;76.90
26978;BME280;56314;48.088;11.642;2023-11-21T11:02:53;94987.78;;;9.49;77.80
26978;BME280;56314;48.088;11.642;2023-11-21T11:05:23;94986.66;;;9.63;76.88
26978;BME280;56314;48.088;11.642;2023-11-21T11:07:51;94984.75;;;9.65;76.87
26978;BME280;56314;48.088;11.642;2023-11-21T11:10:22;94984.31;;;9.60;76.61
26978;BME280;56314;48.088;11.642;2023-11-21T11:12:51;94983.47;;;9.60;76.83
26978;BME280;56314;48.088;11.642;2023-11-21T11:15:17;94988.72;;;9.60;76.49
26978;BME280;56314;48.088;11.642;2023-11-21T11:17:45;94985.63;;;9.54;77.13
26978;BME280;56314;48.088;11.642;2023-11-21T11:20:13;94983.84;;;9.55;76.55
26978;BME280;56314;48.088;11.642;2023-11-21T11:25:28;94981.22;;;9.55;77.89
26978;BME280;56314;48.088;11.642;2023-11-21T11:28:08;94986.09;;;9.60;77.24
26978;BME280;56314;48.088;11.642;2023-11-21T11:30:41;94984.03;;;9.63;75.97
26978;BME280;56314;48.088;11.642;2023-11-21T11:33:39;94976.69;;;9.57;77.17
26978;BME280;56314;48.088;11.642;2023-11-21T11:36:13;94974.88;;;9.58;76.43
26978;BME280;56314;48.088;11.642;2023-11-21T11:38:45;94977.50;;;9.58;75.42
26978;BME280;56314;48.088;11.642;2023-11-21T11:41:11;94970.69;;;9.66;75.49
26978;BME280;56314;48.088;11.642;2023-11-21T11:43:37;94972.66;;;9.85;76.29
26978;BME280;56314;48.088;11.642;2023-11-21T11:46:10;94972.50;;;9.98;75.09
26978;BME280;56314;48.088;11.642;2023-11-21T11:48:38;94967.38;;;9.97;74.25
26978;BME280;56314;48.088;11.642;2023-11-21T11:51:14;94963.84;;;9.86;75.19
26978;BME280;56314;48.088;11.642;2023-11-21T11:53:45;94974.25;;;9.77;75.31
26978;BME280;56314;48.088;11.642;2023-11-21T11:56:25;94970.13;;;9.63;76.25
26978;BME280;56314;48.088;11.642;2023-11-21T11:58:53;94968.94;;;9.44;76.86
26978;BME280;56314;48.088;11.642;2023-11-21T12:01:19;94973.25;;;9.34;76.67
26978;BME280;56314;48.088;11.642;2023-11-21T12:03:47;94962.69;;;9.24;77.70
26978;BME280;56314;48.088;11.642;2023-11-21T12:06:34;94967.22;;;9.11;79.25
26978;BME280;56314;48.088;11.642;2023-11-21T12:09:02;94970.66;;;9.00;78.96
26978;BME280;56314;48.088;11.642;2023-11-21T12:11:31;94974.50;;;8.96;78.72
26978;BME280;56314;48.088;11.642;2023-11-21T12:13:56;94968.19;;;8.98;79.07
26978;BME280;56314;48.088;11.642;2023-11-21T12:16:25;94967.69;;;9.04;79.50
26978;BME280;56314;48.088;11.642;2023-11-21T12:18:52;94973.06;;;9.14;80.33
26978;BME280;56314;48.088;11.642;2023-11-21T12:21:19;94966.63;;;9.30;80.33
26978;BME280;56314;48.088;11.642;2023-11-21T12:23:45;94967.19;;;9.45;78.20
26978;BME280;56314;48.088;11.642;2023-11-21T12:26:13;94975.38;;;9.51;77.78
26978;BME280;56314;48.088;11.642;2023-11-21T12:28:38;94978.59;;;9.55;76.89
26978;BME280;56314;48.088;11.642;2023-11-21T12:31:04;94973.94;;;9.59;77.46
26978;BME280;56314;48.088;11.642;2023-11-21T12:33:35;94975.03;;;9.56;75.90
26978;BME280;56314;48.088;11.642;2023-11-21T12:36:00;94964.69;;;9.43;76.82
26978;BME280;56314;48.088;11.642;2023-11-21T12:38:34;94964.31;;;9.48;76.86
26978;BME280;56314;48.088;11.642;2023-11-21T12:41:00;94967.31;;;9.43;76.90
26978;BME280;56314;48.088;11.642;2023-11-21T12:43:25;94972.31;;;9.35;77.36
26978;BME280;56314;48.088;11.642;2023-11-21T12:46:07;94970.16;;;9.40;76.69
26978;BME280;56314;48.088;11.642;2023-11-21T12:48:32;94974.81;;;9.36;76.59
26978;BME280;56314;48.088;11.642;2023-11-21T12:50:58;94971.84;;;9.30;76.88
26978;BME280;56314;48.088;11.642;2023-11-21T12:53:26;94975.06;;;9.33;77.60
26978;BME280;56314;48.088;11.642;2023-11-21T12:55:51;94978.25;;;9.37;77.59